Dobrije, Slovenia

11:57 PM CET on februar 21, 2018 (GMT +0100)
Tolsti vrh | | Change Station

Viš 1411 ft 46.56 °N, 14.95 °E | Updated 10 minutes ago

Sneg
Sneg
31.8 °F
Feels Like 32 °F
N
2.5
Veter Spremenljivo Veter od JV
Gusts 4.5 mph

Danes
High -- | Low -- °F
--% Chance of Precip.
Yesterday
High -- | Low -- °F
Precip. -- v
Zračni tlak 29.89 v
Vidljivost 6.2 milje
Oblaki Few 3500 ft
Pretezno oblacno 5000 ft
Občutek zaradi vetra 32 °F
Rosišče 27 °F
Vlažnost 85%
Padavine 0.00 v
Snow Depth Not available.
6:54 AM 5:33 PM
Naraščajoči krajec, 35% visible
METAR LJLJ 212230Z 31004KT 9999 -SN FEW035 BKN050 00/M02 Q1012 NOSIG
Zračni tlak 29.89 v
Vidljivost 6.2 milje
Oblaki Few 3500 ft
Pretezno oblacno 5000 ft
Občutek zaradi vetra 32 °F
Rosišče 27 °F
Vlažnost 85%
Padavine 0.00 v
Snow Depth Not available.
6:54 AM 5:33 PM
Naraščajoči krajec, 35% visible
METAR LJLJ 212230Z 31004KT 9999 -SN FEW035 BKN050 00/M02 Q1012 NOSIG

Get Severe Weather Alerts

Thanks for signing up!

Be on the lookout for a verification email in your inbox.

You'll start receiving the daily forecast at 6 AM.

×

10-Day Weather Forecast

Heavy Snow conditions possible.
×

Almanac

Astronomija

Feb. 21, 2018 Rise Set
Actual Time
Civil Twilight
Nautical Twilight
Astronomical Twilight
Moon
Length Of Visible Light
Dolžina dneva
Tomorrow will be .
, % of the Moon is Illuminated

Današnji ekstremi

Country Highs Country Lows

Community

WunderPhotos

Category 6

Welcome to Category 6. This is the collective home for Weather Underground's featured writeups by Dr. Jeff Masters (right), Bob Henson (left), Chris Burt, and other regular contributors.

Nearby

Air Quality

  Air Quality AQ Index Pollutant
Not available.

Snow Depth

Station Depth Višina

Earthquake Activity

City Distance Mag. Time & Date
Minimum magnitude displayed is 2.5.

Coastal Water Temperatures

Mesto Temperatura

Stations

Nearby Weather Stations

Station Location Temp Občutek zaradi vetra Rosišče Vlažnost Veter Precip. Viš Obnovljeno Type